sensor_id;sensor_type;location;lat;lon;timestamp;P1;durP1;ratioP1;P2;durP2;ratioP2
15153;SDS011;7677;41.896;25.004;2023-06-14T00:00:10;5.50;;;4.05;;
15153;SDS011;7677;41.896;25.004;2023-06-14T00:02:39;6.57;;;5.05;;
15153;SDS011;7677;41.896;25.004;2023-06-14T00:05:06;5.80;;;4.80;;
15153;SDS011;7677;41.896;25.004;2023-06-14T00:07:35;7.43;;;4.38;;
15153;SDS011;7677;41.896;25.004;2023-06-14T00:10:03;5.13;;;4.63;;
15153;SDS011;7677;41.896;25.004;2023-06-14T00:12:31;5.68;;;4.80;;
15153;SDS011;7677;41.896;25.004;2023-06-14T00:14:58;8.88;;;5.00;;
15153;SDS011;7677;41.896;25.004;2023-06-14T00:17:28;6.65;;;5.07;;
15153;SDS011;7677;41.896;25.004;2023-06-14T00:19:56;4.90;;;4.20;;
15153;SDS011;7677;41.896;25.004;2023-06-14T00:22:23;4.90;;;4.40;;
15153;SDS011;7677;41.896;25.004;2023-06-14T00:24:51;4.95;;;4.45;;
15153;SDS011;7677;41.896;25.004;2023-06-14T00:27:18;5.30;;;4.10;;
15153;SDS011;7677;41.896;25.004;2023-06-14T00:29:45;5.32;;;4.50;;
15153;SDS011;7677;41.896;25.004;2023-06-14T00:32:12;6.75;;;4.53;;
15153;SDS011;7677;41.896;25.004;2023-06-14T00:34:41;5.50;;;4.75;;
15153;SDS011;7677;41.896;25.004;2023-06-14T00:37:08;4.53;;;4.03;;
15153;SDS011;7677;41.896;25.004;2023-06-14T00:39:35;4.68;;;4.07;;
15153;SDS011;7677;41.896;25.004;2023-06-14T00:42:02;5.00;;;4.50;;
15153;SDS011;7677;41.896;25.004;2023-06-14T00:44:30;7.80;;;4.50;;
15153;SDS011;7677;41.896;25.004;2023-06-14T00:46:57;5.65;;;3.67;;
15153;SDS011;7677;41.896;25.004;2023-06-14T00:49:24;6.10;;;4.90;;
15153;SDS011;7677;41.896;25.004;2023-06-14T00:51:53;6.63;;;4.45;;
15153;SDS011;7677;41.896;25.004;2023-06-14T00:54:20;4.22;;;3.83;;
15153;SDS011;7677;41.896;25.004;2023-06-14T00:56:47;5.57;;;4.45;;
15153;SDS011;7677;41.896;25.004;2023-06-14T00:59:15;5.05;;;4.53;;
15153;SDS011;7677;41.896;25.004;2023-06-14T01:01:42;6.22;;;5.03;;
15153;SDS011;7677;41.896;25.004;2023-06-14T01:04:10;6.38;;;4.72;;
15153;SDS011;7677;41.896;25.004;2023-06-14T01:06:41;6.43;;;5.20;;
15153;SDS011;7677;41.896;25.004;2023-06-14T01:09:15;6.63;;;4.82;;
15153;SDS011;7677;41.896;25.004;2023-06-14T01:11:48;5.30;;;4.55;;
15153;SDS011;7677;41.896;25.004;2023-06-14T01:14:18;4.80;;;4.30;;
15153;SDS011;7677;41.896;25.004;2023-06-14T01:16:45;5.40;;;4.30;;
15153;SDS011;7677;41.896;25.004;2023-06-14T01:19:12;5.00;;;4.50;;
15153;SDS011;7677;41.896;25.004;2023-06-14T01:21:41;4.97;;;4.47;;
15153;SDS011;7677;41.896;25.004;2023-06-14T01:24:09;4.93;;;4.20;;
15153;SDS011;7677;41.896;25.004;2023-06-14T01:26:37;8.38;;;4.47;;
15153;SDS011;7677;41.896;25.004;2023-06-14T01:29:11;4.50;;;3.90;;
15153;SDS011;7677;41.896;25.004;2023-06-14T01:31:41;5.35;;;4.65;;
15153;SDS011;7677;41.896;25.004;2023-06-14T01:34:08;4.93;;;4.43;;
15153;SDS011;7677;41.896;25.004;2023-06-14T01:36:36;5.47;;;4.60;;
15153;SDS011;7677;41.896;25.004;2023-06-14T01:39:07;4.88;;;4.38;;
15153;SDS011;7677;41.896;25.004;2023-06-14T01:41:36;4.63;;;4.15;;
15153;SDS011;7677;41.896;25.004;2023-06-14T01:44:04;4.30;;;3.85;;
15153;SDS011;7677;41.896;25.004;2023-06-14T01:46:31;6.57;;;4.03;;
15153;SDS011;7677;41.896;25.004;2023-06-14T01:48:59;4.50;;;4.07;;
15153;SDS011;7677;41.896;25.004;2023-06-14T01:51:26;4.57;;;3.85;;
15153;SDS011;7677;41.896;25.004;2023-06-14T01:53:53;4.35;;;3.60;;
15153;SDS011;7677;41.896;25.004;2023-06-14T01:56:20;4.72;;;4.20;;
15153;SDS011;7677;41.896;25.004;2023-06-14T01:58:49;4.55;;;4.07;;
15153;SDS011;7677;41.896;25.004;2023-06-14T02:01:17;4.65;;;4.18;;
15153;SDS011;7677;41.896;25.004;2023-06-14T02:03:44;5.95;;;4.57;;
15153;SDS011;7677;41.896;25.004;2023-06-14T02:06:11;4.55;;;3.83;;
15153;SDS011;7677;41.896;25.004;2023-06-14T02:08:39;5.43;;;4.32;;
15153;SDS011;7677;41.896;25.004;2023-06-14T02:11:06;4.07;;;3.67;;
15153;SDS011;7677;41.896;25.004;2023-06-14T02:13:33;7.82;;;4.05;;
15153;SDS011;7677;41.896;25.004;2023-06-14T02:16:02;6.95;;;4.70;;
15153;SDS011;7677;41.896;25.004;2023-06-14T02:18:29;4.78;;;4.22;;
15153;SDS011;7677;41.896;25.004;2023-06-14T02:20:57;6.03;;;4.95;;
15153;SDS011;7677;41.896;25.004;2023-06-14T02:23:24;4.95;;;4.47;;
15153;SDS011;7677;41.896;25.004;2023-06-14T02:25:51;6.32;;;4.38;;
15153;SDS011;7677;41.896;25.004;2023-06-14T02:28:18;4.15;;;3.75;;
15153;SDS011;7677;41.896;25.004;2023-06-14T02:30:45;4.50;;;4.10;;
15153;SDS011;7677;41.896;25.004;2023-06-14T02:33:14;5.43;;;4.82;;
15153;SDS011;7677;41.896;25.004;2023-06-14T02:35:42;6.55;;;4.32;;
15153;SDS011;7677;41.896;25.004;2023-06-14T02:38:10;4.85;;;4.38;;
15153;SDS011;7677;41.896;25.004;2023-06-14T02:40:37;4.15;;;3.75;;
15153;SDS011;7677;41.896;25.004;2023-06-14T02:43:04;5.95;;;4.55;;
15153;SDS011;7677;41.896;25.004;2023-06-14T02:45:31;4.82;;;4.20;;
15153;SDS011;7677;41.896;25.004;2023-06-14T02:47:58;5.03;;;4.53;;
15153;SDS011;7677;41.896;25.004;2023-06-14T02:50:27;5.80;;;5.22;;
15153;SDS011;7677;41.896;25.004;2023-06-14T02:52:55;6.25;;;4.90;;
15153;SDS011;7677;41.896;25.004;2023-06-14T02:55:23;5.25;;;4.75;;
15153;SDS011;7677;41.896;25.004;2023-06-14T02:57:51;4.65;;;4.20;;
15153;SDS011;7677;41.896;25.004;2023-06-14T03:00:19;4.55;;;4.15;;
15153;SDS011;7677;41.896;25.004;2023-06-14T03:02:46;7.50;;;4.85;;
15153;SDS011;7677;41.896;25.004;2023-06-14T03:05:13;5.25;;;4.40;;
15153;SDS011;7677;41.896;25.004;2023-06-14T03:07:42;5.82;;;4.03;;
15153;SDS011;7677;41.896;25.004;2023-06-14T03:10:10;4.63;;;4.22;;
15153;SDS011;7677;41.896;25.004;2023-06-14T03:12:38;13.82;;;5.25;;
15153;SDS011;7677;41.896;25.004;2023-06-14T03:15:05;5.78;;;4.93;;
15153;SDS011;7677;41.896;25.004;2023-06-14T03:17:34;5.18;;;4.68;;
15153;SDS011;7677;41.896;25.004;2023-06-14T03:20:04;9.48;;;4.57;;
15153;SDS011;7677;41.896;25.004;2023-06-14T03:22:33;7.30;;;4.63;;
15153;SDS011;7677;41.896;25.004;2023-06-14T03:25:02;5.80;;;5.13;;
15153;SDS011;7677;41.896;25.004;2023-06-14T03:27:30;7.65;;;5.18;;
15153;SDS011;7677;41.896;25.004;2023-06-14T03:29:57;6.67;;;4.70;;
15153;SDS011;7677;41.896;25.004;2023-06-14T03:32:25;5.60;;;4.88;;
15153;SDS011;7677;41.896;25.004;2023-06-14T03:34:53;4.97;;;4.47;;
15153;SDS011;7677;41.896;25.004;2023-06-14T03:37:20;7.60;;;5.10;;
15153;SDS011;7677;41.896;25.004;2023-06-14T03:39:47;5.45;;;4.95;;
15153;SDS011;7677;41.896;25.004;2023-06-14T03:42:16;4.90;;;4.35;;
15153;SDS011;7677;41.896;25.004;2023-06-14T03:44:43;5.22;;;4.05;;
15153;SDS011;7677;41.896;25.004;2023-06-14T03:47:10;5.47;;;4.68;;
15153;SDS011;7677;41.896;25.004;2023-06-14T03:49:37;8.80;;;5.25;;
15153;SDS011;7677;41.896;25.004;2023-06-14T03:52:05;9.48;;;5.82;;
15153;SDS011;7677;41.896;25.004;2023-06-14T03:54:32;5.82;;;5.07;;
15153;SDS011;7677;41.896;25.004;2023-06-14T03:56:59;10.57;;;5.80;;
15153;SDS011;7677;41.896;25.004;2023-06-14T03:59:28;6.63;;;5.43;;
15153;SDS011;7677;41.896;25.004;2023-06-14T04:01:55;7.80;;;5.25;;
15153;SDS011;7677;41.896;25.004;2023-06-14T04:04:22;5.65;;;5.13;;
15153;SDS011;7677;41.896;25.004;2023-06-14T04:06:53;5.70;;;5.20;;
15153;SDS011;7677;41.896;25.004;2023-06-14T04:09:22;5.93;;;5.40;;
15153;SDS011;7677;41.896;25.004;2023-06-14T04:11:50;6.55;;;5.70;;
15153;SDS011;7677;41.896;25.004;2023-06-14T04:14:18;6.53;;;5.53;;
15153;SDS011;7677;41.896;25.004;2023-06-14T04:16:47;6.18;;;5.57;;
15153;SDS011;7677;41.896;25.004;2023-06-14T04:19:14;5.95;;;5.25;;
15153;SDS011;7677;41.896;25.004;2023-06-14T04:21:41;6.90;;;5.68;;
15153;SDS011;7677;41.896;25.004;2023-06-14T04:24:08;6.00;;;5.40;;
15153;SDS011;7677;41.896;25.004;2023-06-14T04:26:38;6.65;;;5.63;;
15153;SDS011;7677;41.896;25.004;2023-06-14T04:29:05;5.82;;;4.97;;
15153;SDS011;7677;41.896;25.004;2023-06-14T04:31:32;8.20;;;5.60;;
15153;SDS011;7677;41.896;25.004;2023-06-14T04:34:04;6.28;;;5.60;;
15153;SDS011;7677;41.896;25.004;2023-06-14T04:36:31;7.03;;;6.13;;
15153;SDS011;7677;41.896;25.004;2023-06-14T04:39:00;7.78;;;6.68;;
15153;SDS011;7677;41.896;25.004;2023-06-14T04:41:28;8.05;;;5.88;;
15153;SDS011;7677;41.896;25.004;2023-06-14T04:43:56;7.68;;;6.47;;
15153;SDS011;7677;41.896;25.004;2023-06-14T04:46:26;7.53;;;6.47;;
15153;SDS011;7677;41.896;25.004;2023-06-14T04:48:54;10.37;;;6.50;;
15153;SDS011;7677;41.896;25.004;2023-06-14T04:51:23;8.07;;;6.88;;
15153;SDS011;7677;41.896;25.004;2023-06-14T04:53:55;6.50;;;5.35;;
15153;SDS011;7677;41.896;25.004;2023-06-14T04:56:23;7.28;;;5.68;;
15153;SDS011;7677;41.896;25.004;2023-06-14T04:58:51;6.95;;;6.25;;
15153;SDS011;7677;41.896;25.004;2023-06-14T05:01:19;7.43;;;6.28;;
15153;SDS011;7677;41.896;25.004;2023-06-14T05:03:48;9.60;;;6.00;;
15153;SDS011;7677;41.896;25.004;2023-06-14T05:06:15;8.00;;;6.18;;
15153;SDS011;7677;41.896;25.004;2023-06-14T05:08:44;8.00;;;6.82;;
15153;SDS011;7677;41.896;25.004;2023-06-14T05:11:11;9.00;;;7.72;;
15153;SDS011;7677;41.896;25.004;2023-06-14T05:13:38;9.90;;;7.15;;
15153;SDS011;7677;41.896;25.004;2023-06-14T05:16:07;9.32;;;7.07;;
15153;SDS011;7677;41.896;25.004;2023-06-14T05:18:34;9.60;;;7.72;;
15153;SDS011;7677;41.896;25.004;2023-06-14T05:21:02;9.18;;;6.80;;
15153;SDS011;7677;41.896;25.004;2023-06-14T05:23:30;8.50;;;7.45;;
15153;SDS011;7677;41.896;25.004;2023-06-14T05:25:59;9.02;;;7.97;;
15153;SDS011;7677;41.896;25.004;2023-06-14T05:28:28;12.32;;;8.55;;
15153;SDS011;7677;41.896;25.004;2023-06-14T05:30:56;14.00;;;8.57;;
15153;SDS011;7677;41.896;25.004;2023-06-14T05:33:23;11.57;;;7.10;;
15153;SDS011;7677;41.896;25.004;2023-06-14T05:35:50;10.43;;;9.02;;
15153;SDS011;7677;41.896;25.004;2023-06-14T05:38:17;13.90;;;9.98;;
15153;SDS011;7677;41.896;25.004;2023-06-14T05:40:44;10.02;;;8.93;;
15153;SDS011;7677;41.896;25.004;2023-06-14T05:43:13;11.38;;;9.02;;
15153;SDS011;7677;41.896;25.004;2023-06-14T05:45:40;12.35;;;10.20;;
15153;SDS011;7677;41.896;25.004;2023-06-14T05:48:07;15.05;;;11.68;;
15153;SDS011;7677;41.896;25.004;2023-06-14T05:50:34;15.32;;;11.05;;
15153;SDS011;7677;41.896;25.004;2023-06-14T05:53:02;14.88;;;11.60;;
15153;SDS011;7677;41.896;25.004;2023-06-14T05:55:29;13.30;;;10.93;;
15153;SDS011;7677;41.896;25.004;2023-06-14T05:57:56;14.70;;;11.95;;
15153;SDS011;7677;41.896;25.004;2023-06-14T06:00:24;12.55;;;10.25;;
15153;SDS011;7677;41.896;25.004;2023-06-14T06:02:52;13.35;;;10.95;;
15153;SDS011;7677;41.896;25.004;2023-06-14T06:05:22;14.02;;;10.80;;
15153;SDS011;7677;41.896;25.004;2023-06-14T06:07:49;14.27;;;11.93;;
15153;SDS011;7677;41.896;25.004;2023-06-14T06:10:16;16.27;;;12.20;;
15153;SDS011;7677;41.896;25.004;2023-06-14T06:12:44;15.50;;;12.27;;
15153;SDS011;7677;41.896;25.004;2023-06-14T06:15:13;13.23;;;11.68;;
15153;SDS011;7677;41.896;25.004;2023-06-14T06:17:42;14.48;;;12.90;;
15153;SDS011;7677;41.896;25.004;2023-06-14T06:20:10;14.10;;;11.80;;
15153;SDS011;7677;41.896;25.004;2023-06-14T06:22:38;14.52;;;12.60;;
15153;SDS011;7677;41.896;25.004;2023-06-14T06:25:05;15.63;;;13.45;;
15153;SDS011;7677;41.896;25.004;2023-06-14T06:27:34;16.60;;;12.68;;
15153;SDS011;7677;41.896;25.004;2023-06-14T06:30:03;17.25;;;12.23;;
15153;SDS011;7677;41.896;25.004;2023-06-14T06:32:30;15.43;;;13.18;;
15153;SDS011;7677;41.896;25.004;2023-06-14T06:34:59;16.85;;;13.55;;
15153;SDS011;7677;41.896;25.004;2023-06-14T06:37:26;18.58;;;13.45;;
15153;SDS011;7677;41.896;25.004;2023-06-14T06:39:53;16.70;;;13.30;;
15153;SDS011;7677;41.896;25.004;2023-06-14T06:42:20;16.75;;;12.95;;
15153;SDS011;7677;41.896;25.004;2023-06-14T06:44:47;14.23;;;11.80;;
15153;SDS011;7677;41.896;25.004;2023-06-14T06:47:15;15.40;;;12.48;;
15153;SDS011;7677;41.896;25.004;2023-06-14T06:49:42;15.40;;;12.77;;
15153;SDS011;7677;41.896;25.004;2023-06-14T06:52:10;13.55;;;11.65;;
15153;SDS011;7677;41.896;25.004;2023-06-14T06:54:38;16.77;;;13.25;;
15153;SDS011;7677;41.896;25.004;2023-06-14T06:57:05;13.45;;;12.05;;
15153;SDS011;7677;41.896;25.004;2023-06-14T06:59:32;14.82;;;12.77;;
15153;SDS011;7677;41.896;25.004;2023-06-14T07:02:00;17.98;;;12.63;;
15153;SDS011;7677;41.896;25.004;2023-06-14T07:04:27;15.88;;;12.48;;
15153;SDS011;7677;41.896;25.004;2023-06-14T07:06:54;14.32;;;11.18;;
15153;SDS011;7677;41.896;25.004;2023-06-14T07:09:23;14.00;;;11.35;;
15153;SDS011;7677;41.896;25.004;2023-06-14T07:11:50;13.18;;;10.88;;
15153;SDS011;7677;41.896;25.004;2023-06-14T07:14:17;14.77;;;11.88;;
15153;SDS011;7677;41.896;25.004;2023-06-14T07:16:45;12.00;;;9.98;;
15153;SDS011;7677;41.896;25.004;2023-06-14T07:19:12;12.30;;;10.90;;
15153;SDS011;7677;41.896;25.004;2023-06-14T07:21:39;14.45;;;11.05;;
15153;SDS011;7677;41.896;25.004;2023-06-14T07:24:06;11.57;;;10.45;;
15153;SDS011;7677;41.896;25.004;2023-06-14T07:26:35;13.63;;;11.38;;
15153;SDS011;7677;41.896;25.004;2023-06-14T07:29:02;11.80;;;10.23;;
15153;SDS011;7677;41.896;25.004;2023-06-14T07:31:29;13.05;;;11.27;;
15153;SDS011;7677;41.896;25.004;2023-06-14T07:33:56;12.35;;;10.43;;
15153;SDS011;7677;41.896;25.004;2023-06-14T07:36:23;10.63;;;9.52;;
15153;SDS011;7677;41.896;25.004;2023-06-14T07:38:50;11.10;;;9.90;;
15153;SDS011;7677;41.896;25.004;2023-06-14T07:41:18;10.88;;;9.40;;
15153;SDS011;7677;41.896;25.004;2023-06-14T07:43:46;12.38;;;9.77;;
15153;SDS011;7677;41.896;25.004;2023-06-14T07:46:14;10.02;;;8.40;;
15153;SDS011;7677;41.896;25.004;2023-06-14T07:48:41;10.52;;;9.27;;
15153;SDS011;7677;41.896;25.004;2023-06-14T07:51:08;14.93;;;9.25;;
15153;SDS011;7677;41.896;25.004;2023-06-14T07:53:35;10.20;;;8.10;;
15153;SDS011;7677;41.896;25.004;2023-06-14T07:56:02;18.05;;;9.43;;
15153;SDS011;7677;41.896;25.004;2023-06-14T07:58:30;11.40;;;9.48;;
15153;SDS011;7677;41.896;25.004;2023-06-14T08:00:58;12.80;;;10.70;;
15153;SDS011;7677;41.896;25.004;2023-06-14T08:03:28;10.60;;;9.50;;
15153;SDS011;7677;41.896;25.004;2023-06-14T08:05:56;11.20;;;9.70;;
15153;SDS011;7677;41.896;25.004;2023-06-14T08:08:23;13.43;;;9.68;;
15153;SDS011;7677;41.896;25.004;2023-06-14T08:10:50;14.77;;;10.02;;
15153;SDS011;7677;41.896;25.004;2023-06-14T08:13:17;12.00;;;9.93;;
15153;SDS011;7677;41.896;25.004;2023-06-14T08:15:44;12.35;;;10.15;;
15153;SDS011;7677;41.896;25.004;2023-06-14T08:18:13;11.90;;;10.07;;
15153;SDS011;7677;41.896;25.004;2023-06-14T08:20:40;13.75;;;10.80;;
15153;SDS011;7677;41.896;25.004;2023-06-14T08:23:07;12.63;;;10.40;;
15153;SDS011;7677;41.896;25.004;2023-06-14T08:25:35;13.35;;;10.38;;
15153;SDS011;7677;41.896;25.004;2023-06-14T08:28:02;12.88;;;10.65;;
15153;SDS011;7677;41.896;25.004;2023-06-14T08:30:30;11.27;;;10.05;;
15153;SDS011;7677;41.896;25.004;2023-06-14T08:32:57;10.98;;;9.48;;
15153;SDS011;7677;41.896;25.004;2023-06-14T08:35:25;10.35;;;9.23;;
15153;SDS011;7677;41.896;25.004;2023-06-14T08:37:53;11.10;;;8.63;;
15153;SDS011;7677;41.896;25.004;2023-06-14T08:40:22;10.77;;;9.35;;
15153;SDS011;7677;41.896;25.004;2023-06-14T08:42:50;10.85;;;9.38;;
15153;SDS011;7677;41.896;25.004;2023-06-14T08:45:18;12.07;;;10.00;;
15153;SDS011;7677;41.896;25.004;2023-06-14T08:47:46;13.75;;;10.38;;
15153;SDS011;7677;41.896;25.004;2023-06-14T08:50:18;10.52;;;8.80;;
15153;SDS011;7677;41.896;25.004;2023-06-14T08:52:48;16.55;;;9.82;;
15153;SDS011;7677;41.896;25.004;2023-06-14T08:55:18;10.38;;;9.23;;
15153;SDS011;7677;41.896;25.004;2023-06-14T08:57:46;9.50;;;8.30;;
15153;SDS011;7677;41.896;25.004;2023-06-14T09:00:14;12.05;;;9.30;;
15153;SDS011;7677;41.896;25.004;2023-06-14T09:02:42;12.00;;;9.77;;
15153;SDS011;7677;41.896;25.004;2023-06-14T09:05:10;10.77;;;9.55;;
15153;SDS011;7677;41.896;25.004;2023-06-14T09:07:38;11.68;;;9.55;;
15153;SDS011;7677;41.896;25.004;2023-06-14T09:10:09;12.43;;;10.18;;
15153;SDS011;7677;41.896;25.004;2023-06-14T09:12:37;10.45;;;9.35;;
15153;SDS011;7677;41.896;25.004;2023-06-14T09:15:06;11.13;;;9.52;;
15153;SDS011;7677;41.896;25.004;2023-06-14T09:17:34;10.70;;;9.45;;
15153;SDS011;7677;41.896;25.004;2023-06-14T09:20:01;10.82;;;9.00;;
15153;SDS011;7677;41.896;25.004;2023-06-14T09:22:32;10.40;;;8.80;;
15153;SDS011;7677;41.896;25.004;2023-06-14T09:24:59;12.13;;;10.32;;
15153;SDS011;7677;41.896;25.004;2023-06-14T09:27:28;11.68;;;8.88;;
15153;SDS011;7677;41.896;25.004;2023-06-14T09:29:55;10.98;;;9.07;;
15153;SDS011;7677;41.896;25.004;2023-06-14T09:32:23;11.68;;;9.55;;
15153;SDS011;7677;41.896;25.004;2023-06-14T09:34:50;11.77;;;9.38;;
15153;SDS011;7677;41.896;25.004;2023-06-14T09:37:26;11.95;;;9.68;;
15153;SDS011;7677;41.896;25.004;2023-06-14T09:39:55;11.07;;;9.63;;
15153;SDS011;7677;41.896;25.004;2023-06-14T09:42:22;12.48;;;10.10;;
15153;SDS011;7677;41.896;25.004;2023-06-14T09:44:53;11.80;;;9.77;;
15153;SDS011;7677;41.896;25.004;2023-06-14T09:47:21;10.45;;;9.32;;
15153;SDS011;7677;41.896;25.004;2023-06-14T09:49:49;10.45;;;9.10;;
15153;SDS011;7677;41.896;25.004;2023-06-14T09:52:17;10.57;;;8.63;;
15153;SDS011;7677;41.896;25.004;2023-06-14T09:54:46;9.98;;;8.98;;
15153;SDS011;7677;41.896;25.004;2023-06-14T09:57:15;9.15;;;7.75;;
15153;SDS011;7677;41.896;25.004;2023-06-14T09:59:43;11.68;;;8.25;;
15153;SDS011;7677;41.896;25.004;2023-06-14T10:02:14;8.45;;;7.53;;
15153;SDS011;7677;41.896;25.004;2023-06-14T10:04:50;9.27;;;7.40;;
15153;SDS011;7677;41.896;25.004;2023-06-14T10:07:23;8.38;;;7.50;;
15153;SDS011;7677;41.896;25.004;2023-06-14T10:09:51;9.02;;;7.82;;
15153;SDS011;7677;41.896;25.004;2023-06-14T10:12:19;7.78;;;7.03;;
15153;SDS011;7677;41.896;25.004;2023-06-14T10:14:48;8.00;;;7.20;;
15153;SDS011;7677;41.896;25.004;2023-06-14T10:17:20;8.13;;;7.20;;
15153;SDS011;7677;41.896;25.004;2023-06-14T10:19:55;6.95;;;6.35;;
15153;SDS011;7677;41.896;25.004;2023-06-14T10:22:26;7.18;;;6.13;;
15153;SDS011;7677;41.896;25.004;2023-06-14T10:24:57;7.18;;;6.47;;
15153;SDS011;7677;41.896;25.004;2023-06-14T10:27:24;7.35;;;6.50;;
15153;SDS011;7677;41.896;25.004;2023-06-14T10:30:04;6.75;;;5.88;;
15153;SDS011;7677;41.896;25.004;2023-06-14T10:32:35;6.40;;;5.80;;
15153;SDS011;7677;41.896;25.004;2023-06-14T10:35:04;6.63;;;5.75;;
15153;SDS011;7677;41.896;25.004;2023-06-14T10:37:32;6.72;;;5.90;;
15153;SDS011;7677;41.896;25.004;2023-06-14T10:40:00;6.00;;;5.40;;
15153;SDS011;7677;41.896;25.004;2023-06-14T10:42:28;6.60;;;6.00;;
15153;SDS011;7677;41.896;25.004;2023-06-14T10:44:58;6.60;;;5.82;;
15153;SDS011;7677;41.896;25.004;2023-06-14T10:47:27;6.35;;;5.65;;
15153;SDS011;7677;41.896;25.004;2023-06-14T10:49:57;6.72;;;6.03;;
15153;SDS011;7677;41.896;25.004;2023-06-14T10:52:32;8.10;;;6.07;;
15153;SDS011;7677;41.896;25.004;2023-06-14T10:55:08;7.60;;;6.75;;
15153;SDS011;7677;41.896;25.004;2023-06-14T10:57:36;6.43;;;5.82;;
15153;SDS011;7677;41.896;25.004;2023-06-14T11:00:05;8.18;;;6.00;;
15153;SDS011;7677;41.896;25.004;2023-06-14T11:05:48;6.53;;;5.82;;
15153;SDS011;7677;41.896;25.004;2023-06-14T11:08:27;7.82;;;5.68;;
15153;SDS011;7677;41.896;25.004;2023-06-14T11:11:14;6.05;;;5.55;;
15153;SDS011;7677;41.896;25.004;2023-06-14T11:13:45;6.22;;;5.50;;
15153;SDS011;7677;41.896;25.004;2023-06-14T11:16:13;6.65;;;5.93;;
15153;SDS011;7677;41.896;25.004;2023-06-14T11:18:41;6.43;;;5.82;;
15153;SDS011;7677;41.896;25.004;2023-06-14T11:21:10;6.82;;;5.30;;
15153;SDS011;7677;41.896;25.004;2023-06-14T11:23:37;6.18;;;5.50;;
15153;SDS011;7677;41.896;25.004;2023-06-14T11:26:04;6.18;;;5.55;;
15153;SDS011;7677;41.896;25.004;2023-06-14T11:28:35;6.43;;;5.82;;
15153;SDS011;7677;41.896;25.004;2023-06-14T11:31:04;6.53;;;5.93;;
15153;SDS011;7677;41.896;25.004;2023-06-14T11:33:31;7.10;;;5.75;;
15153;SDS011;7677;41.896;25.004;2023-06-14T11:35:58;7.28;;;6.20;;
15153;SDS011;7677;41.896;25.004;2023-06-14T11:38:29;7.15;;;5.75;;
15153;SDS011;7677;41.896;25.004;2023-06-14T11:40:58;7.80;;;6.50;;
15153;SDS011;7677;41.896;25.004;2023-06-14T11:43:26;6.38;;;5.78;;
15153;SDS011;7677;41.896;25.004;2023-06-14T11:45:54;8.10;;;6.70;;
15153;SDS011;7677;41.896;25.004;2023-06-14T11:48:21;7.60;;;6.75;;
15153;SDS011;7677;41.896;25.004;2023-06-14T11:50:49;7.63;;;5.90;;
15153;SDS011;7677;41.896;25.004;2023-06-14T11:53:17;7.95;;;6.47;;
15153;SDS011;7677;41.896;25.004;2023-06-14T11:55:46;8.10;;;6.07;;
15153;SDS011;7677;41.896;25.004;2023-06-14T11:58:13;8.40;;;6.00;;
15153;SDS011;7677;41.896;25.004;2023-06-14T12:00:41;9.82;;;6.10;;
15153;SDS011;7677;41.896;25.004;2023-06-14T12:03:08;7.60;;;6.07;;
15153;SDS011;7677;41.896;25.004;2023-06-14T12:05:35;6.28;;;5.63;;
15153;SDS011;7677;41.896;25.004;2023-06-14T12:08:03;7.18;;;6.20;;
15153;SDS011;7677;41.896;25.004;2023-06-14T12:10:39;6.35;;;5.75;;
15153;SDS011;7677;41.896;25.004;2023-06-14T12:13:08;6.22;;;5.63;;
15153;SDS011;7677;41.896;25.004;2023-06-14T12:15:35;5.90;;;5.40;;
15153;SDS011;7677;41.896;25.004;2023-06-14T12:18:04;6.40;;;5.70;;
15153;SDS011;7677;41.896;25.004;2023-06-14T12:20:33;5.85;;;5.30;;
15153;SDS011;7677;41.896;25.004;2023-06-14T12:23:03;5.95;;;5.32;;
15153;SDS011;7677;41.896;25.004;2023-06-14T12:25:31;8.82;;;6.00;;
15153;SDS011;7677;41.896;25.004;2023-06-14T12:27:59;6.32;;;5.38;;
15153;SDS011;7677;41.896;25.004;2023-06-14T12:30:32;5.38;;;4.88;;
15153;SDS011;7677;41.896;25.004;2023-06-14T12:32:59;6.20;;;5.60;;
15153;SDS011;7677;41.896;25.004;2023-06-14T12:35:27;5.85;;;5.03;;
15153;SDS011;7677;41.896;25.004;2023-06-14T12:37:54;5.32;;;4.82;;
15153;SDS011;7677;41.896;25.004;2023-06-14T12:40:22;7.60;;;5.50;;
15153;SDS011;7677;41.896;25.004;2023-06-14T12:42:49;5.45;;;4.95;;
15153;SDS011;7677;41.896;25.004;2023-06-14T12:45:16;6.07;;;4.95;;
15153;SDS011;7677;41.896;25.004;2023-06-14T12:47:44;5.95;;;5.35;;
15153;SDS011;7677;41.896;25.004;2023-06-14T12:50:11;6.10;;;5.22;;
15153;SDS011;7677;41.896;25.004;2023-06-14T12:52:39;6.30;;;5.70;;
15153;SDS011;7677;41.896;25.004;2023-06-14T12:55:06;5.80;;;5.20;;
15153;SDS011;7677;41.896;25.004;2023-06-14T12:57:33;6.28;;;5.55;;
15153;SDS011;7677;41.896;25.004;2023-06-14T13:00:02;6.10;;;5.50;;
15153;SDS011;7677;41.896;25.004;2023-06-14T13:02:29;5.70;;;5.05;;
15153;SDS011;7677;41.896;25.004;2023-06-14T13:04:58;6.22;;;5.20;;
15153;SDS011;7677;41.896;25.004;2023-06-14T13:07:25;5.93;;;5.20;;
15153;SDS011;7677;41.896;25.004;2023-06-14T13:09:53;6.03;;;5.38;;
15153;SDS011;7677;41.896;25.004;2023-06-14T13:12:20;6.45;;;4.97;;
15153;SDS011;7677;41.896;25.004;2023-06-14T13:14:47;6.50;;;5.38;;
15153;SDS011;7677;41.896;25.004;2023-06-14T13:17:14;5.75;;;4.85;;
15153;SDS011;7677;41.896;25.004;2023-06-14T13:19:41;4.80;;;4.38;;
15153;SDS011;7677;41.896;25.004;2023-06-14T13:22:10;6.20;;;5.60;;
15153;SDS011;7677;41.896;25.004;2023-06-14T13:24:37;5.65;;;5.07;;
15153;SDS011;7677;41.896;25.004;2023-06-14T13:27:04;5.30;;;4.80;;
15153;SDS011;7677;41.896;25.004;2023-06-14T13:29:32;6.03;;;5.22;;
15153;SDS011;7677;41.896;25.004;2023-06-14T13:32:01;5.47;;;4.97;;
15153;SDS011;7677;41.896;25.004;2023-06-14T13:34:28;6.45;;;5.45;;
15153;SDS011;7677;41.896;25.004;2023-06-14T13:36:55;6.35;;;4.97;;
15153;SDS011;7677;41.896;25.004;2023-06-14T13:39:25;5.82;;;5.22;;
15153;SDS011;7677;41.896;25.004;2023-06-14T13:41:52;5.95;;;5.35;;
15153;SDS011;7677;41.896;25.004;2023-06-14T13:44:19;6.68;;;5.65;;
15153;SDS011;7677;41.896;25.004;2023-06-14T13:46:47;5.82;;;5.30;;
15153;SDS011;7677;41.896;25.004;2023-06-14T13:49:14;5.18;;;4.60;;
15153;SDS011;7677;41.896;25.004;2023-06-14T13:51:41;6.20;;;5.60;;
15153;SDS011;7677;41.896;25.004;2023-06-14T13:54:08;6.10;;;5.38;;
15153;SDS011;7677;41.896;25.004;2023-06-14T13:56:37;6.80;;;5.60;;
15153;SDS011;7677;41.896;25.004;2023-06-14T13:59:04;5.80;;;5.20;;
15153;SDS011;7677;41.896;25.004;2023-06-14T14:01:31;4.70;;;4.30;;
15153;SDS011;7677;41.896;25.004;2023-06-14T14:03:58;4.82;;;4.18;;
15153;SDS011;7677;41.896;25.004;2023-06-14T14:06:25;5.03;;;4.63;;
15153;SDS011;7677;41.896;25.004;2023-06-14T14:08:53;5.25;;;4.40;;
15153;SDS011;7677;41.896;25.004;2023-06-14T14:11:20;4.63;;;4.18;;
15153;SDS011;7677;41.896;25.004;2023-06-14T14:13:48;4.45;;;4.05;;
15153;SDS011;7677;41.896;25.004;2023-06-14T14:16:16;4.45;;;4.05;;
15153;SDS011;7677;41.896;25.004;2023-06-14T14:18:44;4.28;;;3.88;;
15153;SDS011;7677;41.896;25.004;2023-06-14T14:21:12;4.32;;;3.75;;
15153;SDS011;7677;41.896;25.004;2023-06-14T14:23:39;4.55;;;4.15;;
15153;SDS011;7677;41.896;25.004;2023-06-14T14:26:06;4.30;;;3.75;;
15153;SDS011;7677;41.896;25.004;2023-06-14T14:28:33;4.03;;;3.72;;
15153;SDS011;7677;41.896;25.004;2023-06-14T14:31:02;4.63;;;4.07;;
15153;SDS011;7677;41.896;25.004;2023-06-14T14:33:29;3.55;;;3.22;;
15153;SDS011;7677;41.896;25.004;2023-06-14T14:35:57;3.60;;;3.28;;
15153;SDS011;7677;41.896;25.004;2023-06-14T14:38:30;3.72;;;3.38;;
15153;SDS011;7677;41.896;25.004;2023-06-14T14:40:57;3.95;;;3.38;;
15153;SDS011;7677;41.896;25.004;2023-06-14T14:43:25;4.15;;;3.75;;
15153;SDS011;7677;41.896;25.004;2023-06-14T14:45:52;4.22;;;3.67;;
15153;SDS011;7677;41.896;25.004;2023-06-14T14:48:20;4.20;;;3.80;;